Time;durP1;ratioP1;P1;durP2;ratioP2;P2;SDS_P1;SDS_P2;PMS_P1;PMS_P2;Temp;Humidity;BMP_temperature;BMP_pressure;BME280_temperature;BME280_humidity;BME280_pressure;Samples;Min_cycle;Max_cycle;Signal;HPM_P1;HPM_P2
2021/09/14 00:04:53;;;;;;;3.08;1.08;;;14.70;99.90;;;;;;20637901;28;20085;-81
2021/09/14 00:14:54;;;;;;;3.60;1.30;;;14.50;99.90;;;;;;20637442;28;20214;-82
2021/09/14 00:24:55;;;;;;;2.03;1.10;;;14.50;99.90;;;;;;20606783;28;20054;-83
2021/09/14 00:34:56;;;;;;;3.17;1.10;;;14.50;99.90;;;;;;20624821;28;20058;-82
2021/09/14 00:44:57;;;;;;;6.43;1.60;;;14.40;99.90;;;;;;20594605;28;20537;-82
2021/09/14 00:54:58;;;;;;;3.55;1.17;;;14.40;99.90;;;;;;20596139;28;20059;-83
2021/09/14 01:04:59;;;;;;;3.70;1.30;;;14.40;99.90;;;;;;20606715;28;20856;-83
2021/09/14 01:15:00;;;;;;;4.30;1.80;;;14.30;99.90;;;;;;20598784;28;20057;-83
2021/09/14 01:25:22;;;;;;;3.53;1.58;;;14.20;99.90;;;;;;20579749;28;20121;-83
2021/09/14 01:35:25;;;;;;;4.80;1.77;;;14.20;99.90;;;;;;20603776;28;20061;-84
2021/09/14 01:45:27;;;;;;;3.17;1.33;;;14.20;99.90;;;;;;20611353;28;20070;-83
2021/09/14 01:55:29;;;;;;;3.58;1.40;;;14.20;99.90;;;;;;20599488;28;20511;-83
2021/09/14 02:05:45;;;;;;;4.47;1.50;;;14.20;99.90;;;;;;20597361;28;20058;-83
2021/09/14 03:07:10;;;;;;;2.95;1.45;;;14.00;99.90;;;;;;20643044;28;20053;-83
2021/09/14 03:17:11;;;;;;;3.25;1.60;;;13.90;99.90;;;;;;20646488;28;20577;-84
2021/09/14 03:27:15;;;;;;;4.15;1.52;;;13.90;99.90;;;;;;20639980;28;20073;-83
2021/09/14 03:37:16;;;;;;;5.68;2.22;;;13.80;99.90;;;;;;20637530;28;20398;-84
2021/09/14 03:47:17;;;;;;;4.97;1.75;;;13.80;99.90;;;;;;20613540;28;20049;-83
2021/09/14 03:57:18;;;;;;;5.28;2.10;;;13.70;99.90;;;;;;20655907;28;20260;-83
2021/09/14 04:17:39;;;;;;;5.05;2.10;;;13.50;99.90;;;;;;20681721;28;20305;-84
2021/09/14 04:27:40;;;;;;;7.63;2.28;;;13.40;99.90;;;;;;20674355;28;20521;-84
2021/09/14 04:37:41;;;;;;;5.25;2.05;;;13.40;99.90;;;;;;20677147;28;20054;-84
2021/09/14 04:47:42;;;;;;;5.13;2.55;;;13.50;99.90;;;;;;20633634;28;20482;-83
2021/09/14 04:57:43;;;;;;;6.88;3.05;;;13.50;99.90;;;;;;20661443;28;20038;-83
2021/09/14 05:07:44;;;;;;;7.05;2.45;;;13.40;99.90;;;;;;20666834;28;20541;-84
2021/09/14 05:17:45;;;;;;;7.35;3.00;;;13.40;99.90;;;;;;20653249;28;20053;-83
2021/09/14 05:27:46;;;;;;;7.93;2.85;;;13.30;99.90;;;;;;20647505;28;20065;-83
2021/09/14 05:37:48;;;;;;;8.07;2.72;;;13.40;99.90;;;;;;20657592;28;20065;-83
2021/09/14 05:47:49;;;;;;;9.98;3.13;;;13.30;99.90;;;;;;20620244;28;20066;-84
2021/09/14 05:57:50;;;;;;;7.30;2.90;;;13.40;99.90;;;;;;20605223;28;20053;-84
2021/09/14 06:07:51;;;;;;;10.57;3.20;;;13.50;99.90;;;;;;20617991;28;20063;-84
2021/09/14 06:17:52;;;;;;;9.38;3.50;;;13.60;99.90;;;;;;20594210;28;20047;-83
2021/09/14 06:27:53;;;;;;;7.68;2.78;;;13.70;99.90;;;;;;20637631;28;20049;-84
2021/09/14 06:37:54;;;;;;;7.45;2.67;;;13.70;99.90;;;;;;20600613;28;20398;-84
2021/09/14 06:47:55;;;;;;;8.93;3.17;;;13.80;99.90;;;;;;20641878;28;20070;-83
2021/09/14 06:57:56;;;;;;;8.85;2.60;;;13.90;99.90;;;;;;20684713;28;20056;-81
2021/09/14 07:07:59;;;;;;;8.80;3.75;;;13.90;99.90;;;;;;20664262;28;20509;-83
2021/09/14 07:18:00;;;;;;;10.27;3.75;;;14.00;99.90;;;;;;20685569;28;20090;-82
2021/09/14 07:28:01;;;;;;;8.57;3.13;;;14.10;99.90;;;;;;20657598;28;20067;-82
2021/09/14 07:38:02;;;;;;;8.85;3.90;;;14.30;99.90;;;;;;20646920;28;20063;-83
2021/09/14 07:48:04;;;;;;;9.02;4.18;;;14.50;99.90;;;;;;20628606;28;20066;-81
2021/09/14 07:58:05;;;;;;;9.52;3.80;;;14.60;99.90;;;;;;20687255;28;20047;-82
2021/09/14 08:08:07;;;;;;;6.65;3.17;;;14.90;99.90;;;;;;20663958;28;20506;-83
2021/09/14 08:18:08;;;;;;;8.93;3.90;;;15.20;99.90;;;;;;20655144;28;20034;-82
2021/09/14 08:28:09;;;;;;;10.32;4.15;;;15.70;99.90;;;;;;20682957;28;21193;-82
2021/09/14 08:38:10;;;;;;;8.80;4.15;;;16.00;99.90;;;;;;20629917;28;20049;-83
2021/09/14 08:48:13;;;;;;;9.65;3.78;;;16.20;99.90;;;;;;20626646;28;20053;-82
2021/09/14 08:58:15;;;;;;;9.20;3.78;;;16.70;99.90;;;;;;20685716;28;20061;-83
2021/09/14 09:08:20;;;;;;;9.45;3.00;;;17.20;99.90;;;;;;20651174;28;20069;-82
2021/09/14 09:18:21;;;;;;;7.97;3.42;;;17.50;99.90;;;;;;20653864;28;20042;-82
2021/09/14 09:28:24;;;;;;;10.93;3.97;;;18.00;99.90;;;;;;20657634;28;20054;-82
2021/09/14 09:38:25;;;;;;;7.57;3.53;;;18.30;99.90;;;;;;20634335;28;20758;-82
2021/09/14 09:48:26;;;;;;;7.78;3.78;;;18.70;99.90;;;;;;20604413;28;20058;-81
2021/09/14 09:58:28;;;;;;;6.95;3.47;;;19.10;99.90;;;;;;20608661;28;20042;-81
2021/09/14 10:08:29;;;;;;;6.18;3.40;;;19.60;99.90;;;;;;20591270;28;20071;-81
2021/09/14 10:18:32;;;;;;;10.40;3.90;;;19.90;99.90;;;;;;20589357;28;20051;-81
2021/09/14 10:28:49;;;;;;;5.88;2.78;;;20.20;99.90;;;;;;20609375;28;20043;-81
2021/09/14 10:38:50;;;;;;;6.65;3.13;;;20.50;99.90;;;;;;20600205;28;20057;-80
2021/09/14 10:48:52;;;;;;;6.60;3.13;;;21.00;99.90;;;;;;20609765;28;20053;-80
2021/09/14 10:58:55;;;;;;;5.43;3.00;;;21.70;99.90;;;;;;20581517;28;20057;-80
2021/09/14 11:09:00;;;;;;;4.28;2.05;;;22.30;99.90;;;;;;20618930;28;20046;-80
2021/09/14 11:19:04;;;;;;;5.38;2.85;;;22.80;99.90;;;;;;20588051;28;20034;-80
2021/09/14 11:29:05;;;;;;;6.38;2.50;;;23.40;99.90;;;;;;20599055;28;20081;-80
2021/09/14 11:39:07;;;;;;;5.95;2.80;;;23.60;99.90;;;;;;20629672;28;20057;-80
2021/09/14 11:49:09;;;;;;;5.70;2.45;;;23.80;99.90;;;;;;20660660;28;20065;-79
2021/09/14 11:59:17;;;;;;;6.15;2.72;;;23.80;99.90;;;;;;20662357;28;20044;-79
2021/09/14 12:09:20;;;;;;;4.65;2.53;;;24.20;99.90;;;;;;20665543;28;20567;-80
2021/09/14 12:19:21;;;;;;;4.97;3.03;;;24.60;99.90;;;;;;20645602;28;20037;-80
2021/09/14 12:29:23;;;;;;;4.13;2.25;;;24.30;99.90;;;;;;20684204;28;20057;-79
2021/09/14 12:39:24;;;;;;;4.80;2.75;;;24.00;99.90;;;;;;20682153;28;20057;-80
2021/09/14 12:49:25;;;;;;;4.85;2.03;;;23.50;99.90;;;;;;20636841;28;21183;-80
2021/09/14 12:59:26;;;;;;;4.80;2.75;;;23.50;99.90;;;;;;20675951;28;20140;-80
2021/09/14 13:09:27;;;;;;;4.15;1.83;;;23.50;99.90;;;;;;20643749;28;20063;-80
2021/09/14 13:19:28;;;;;;;4.57;2.03;;;23.50;99.90;;;;;;20649465;28;20071;-80
2021/09/14 13:29:30;;;;;;;5.10;2.28;;;23.50;99.90;;;;;;20633341;28;20045;-80
2021/09/14 13:39:31;;;;;;;4.05;1.95;;;23.30;99.90;;;;;;20676050;28;20059;-79
2021/09/14 13:49:32;;;;;;;4.35;2.70;;;23.20;99.90;;;;;;20650784;28;20060;-80
2021/09/14 13:59:33;;;;;;;5.43;2.75;;;23.10;99.90;;;;;;20662440;28;20042;-80
2021/09/14 14:09:34;;;;;;;6.82;2.83;;;22.90;99.90;;;;;;20673076;28;20430;-80
2021/09/14 14:19:35;;;;;;;4.13;2.25;;;22.60;99.90;;;;;;20654724;28;20058;-81
2021/09/14 14:29:37;;;;;;;5.68;2.65;;;22.30;99.90;;;;;;20644119;28;20573;-81
2021/09/14 14:39:39;;;;;;;3.95;2.20;;;22.20;99.90;;;;;;20700776;28;20054;-81
2021/09/14 14:49:40;;;;;;;5.30;2.30;;;22.00;99.90;;;;;;20682367;28;20840;-81
2021/09/14 14:59:41;;;;;;;8.35;3.53;;;21.90;99.90;;;;;;20727724;28;20056;-80
2021/09/14 15:09:42;;;;;;;5.55;2.63;;;21.90;99.90;;;;;;20684739;28;20093;-81
2021/09/14 15:19:44;;;;;;;6.93;3.13;;;22.00;99.90;;;;;;20715200;28;20053;-80
2021/09/14 15:29:45;;;;;;;11.45;3.30;;;21.80;99.90;;;;;;20703663;28;20057;-80
2021/09/14 15:39:46;;;;;;;7.15;3.45;;;21.70;99.90;;;;;;20617038;28;20532;-80
2021/09/14 15:49:47;;;;;;;4.97;2.45;;;21.60;99.90;;;;;;20546456;28;20059;-80
2021/09/14 15:59:48;;;;;;;5.82;2.97;;;21.50;99.90;;;;;;20577479;28;20097;-80
2021/09/14 16:09:50;;;;;;;7.10;3.25;;;21.40;99.90;;;;;;20556858;28;20359;-80
2021/09/14 16:19:51;;;;;;;6.32;3.40;;;21.20;99.90;;;;;;20639781;28;20042;-81
2021/09/14 16:29:52;;;;;;;8.60;3.15;;;21.20;99.90;;;;;;20618422;28;20377;-81
2021/09/14 16:39:53;;;;;;;9.38;3.80;;;21.20;99.90;;;;;;20635387;28;20084;-81
2021/09/14 16:49:57;;;;;;;5.57;3.10;;;21.10;99.90;;;;;;20671290;28;20042;-80
2021/09/14 17:00:01;;;;;;;6.95;3.22;;;21.10;99.90;;;;;;20669625;28;20152;-80
2021/09/14 17:10:03;;;;;;;7.00;3.58;;;21.00;99.90;;;;;;20666736;28;20062;-81
2021/09/14 17:20:06;;;;;;;7.78;3.72;;;21.00;99.90;;;;;;20645244;28;20058;-81
2021/09/14 17:30:08;;;;;;;5.28;3.00;;;20.90;99.90;;;;;;20662145;28;20061;-81
2021/09/14 17:40:09;;;;;;;9.93;4.30;;;20.70;99.90;;;;;;20651873;28;20056;-81
2021/09/14 17:50:10;;;;;;;8.75;4.55;;;20.80;99.90;;;;;;20638299;28;20063;-81
2021/09/14 18:00:12;;;;;;;8.75;4.43;;;20.70;99.90;;;;;;20623370;28;20042;-81
2021/09/14 18:10:15;;;;;;;9.00;3.72;;;20.70;99.90;;;;;;20643161;28;20125;-80
2021/09/14 18:20:16;;;;;;;8.32;4.20;;;20.70;99.90;;;;;;20744667;28;20038;-80
2021/09/14 18:30:17;;;;;;;6.07;3.55;;;20.70;99.90;;;;;;20651018;28;20430;-80
2021/09/14 18:40:19;;;;;;;9.85;3.83;;;20.60;99.90;;;;;;20578614;28;20129;-80
2021/09/14 18:50:20;;;;;;;10.73;4.43;;;20.60;99.90;;;;;;20596804;28;20058;-81
2021/09/14 19:00:21;;;;;;;9.70;4.70;;;20.70;99.90;;;;;;20609356;28;20675;-81
2021/09/14 19:10:22;;;;;;;7.47;3.28;;;20.60;99.90;;;;;;20611127;28;20050;-80
2021/09/14 19:20:24;;;;;;;7.30;3.60;;;20.60;99.90;;;;;;20581540;28;20073;-81
2021/09/14 19:30:25;;;;;;;9.57;4.70;;;20.50;99.90;;;;;;20593338;28;20692;-80
2021/09/14 19:40:28;;;;;;;9.05;4.20;;;20.20;99.90;;;;;;20612395;28;20481;-80
2021/09/14 19:50:30;;;;;;;10.52;5.43;;;19.90;99.90;;;;;;20693511;28;20053;-80
2021/09/14 20:00:31;;;;;;;10.00;4.72;;;19.80;99.90;;;;;;20668419;28;20046;-80
2021/09/14 20:10:32;;;;;;;16.10;6.13;;;19.70;99.90;;;;;;20704093;28;20054;-80
2021/09/14 20:20:33;;;;;;;14.77;6.20;;;19.60;99.90;;;;;;20659470;28;20042;-81
2021/09/14 20:30:34;;;;;;;12.73;6.57;;;19.60;99.90;;;;;;20661089;28;20067;-81
2021/09/14 20:40:35;;;;;;;12.98;6.78;;;19.60;99.90;;;;;;20700398;28;20052;-81
2021/09/14 20:50:37;;;;;;;11.88;6.35;;;19.50;99.90;;;;;;20664819;28;20049;-81
2021/09/14 21:00:38;;;;;;;15.07;6.72;;;19.40;99.90;;;;;;20691263;28;20510;-81
2021/09/14 21:10:42;;;;;;;11.82;5.43;;;19.40;99.90;;;;;;20696398;28;20061;-81
2021/09/14 21:20:43;;;;;;;14.73;6.40;;;19.30;99.90;;;;;;20658381;28;20050;-78
2021/09/14 21:30:44;;;;;;;10.48;6.18;;;19.20;99.90;;;;;;20730414;28;20066;-81
2021/09/14 21:40:45;;;;;;;15.10;7.63;;;19.20;99.90;;;;;;20673634;28;20057;-81
2021/09/14 21:50:46;;;;;;;13.18;6.63;;;19.20;99.90;;;;;;20691641;28;20054;-81
2021/09/14 22:00:47;;;;;;;17.77;8.27;;;19.10;99.90;;;;;;20705050;28;20061;-81
2021/09/14 22:10:49;;;;;;;23.98;10.05;;;19.10;99.90;;;;;;20720530;28;20054;-81
2021/09/14 22:20:50;;;;;;;29.35;10.85;;;18.90;99.90;;;;;;20726090;28;20053;-82
2021/09/14 22:30:51;;;;;;;28.98;13.30;;;18.70;99.90;;;;;;20718730;28;20095;-82
2021/09/14 22:40:53;;;;;;;27.55;11.15;;;18.70;99.90;;;;;;20684845;28;20052;-81
2021/09/14 22:50:54;;;;;;;20.67;9.90;;;18.60;99.90;;;;;;20648193;28;20057;-81
2021/09/14 23:00:55;;;;;;;18.77;8.07;;;18.50;99.90;;;;;;20678910;28;20070;-81
2021/09/14 23:10:56;;;;;;;27.60;9.05;;;18.40;99.90;;;;;;20631579;28;20069;-80
2021/09/14 23:20:57;;;;;;;20.25;8.48;;;18.40;99.90;;;;;;20648045;28;20077;-81
2021/09/14 23:30:59;;;;;;;19.23;8.10;;;18.30;99.90;;;;;;20615812;28;20057;-81
2021/09/14 23:41:00;;;;;;;19.40;8.85;;;18.30;99.90;;;;;;20612455;28;20051;-81
2021/09/14 23:51:01;;;;;;;20.33;8.80;;;18.20;99.90;;;;;;20618081;28;20140;-81
